sensor_id;sensor_type;location;lat;lon;timestamp;temperature;humidity
9389;DHT22;4734;52.778;6.798;2023-07-28T00:01:03;18.60;99.90
9389;DHT22;4734;52.778;6.798;2023-07-28T00:03:48;18.60;99.90
9389;DHT22;4734;52.778;6.798;2023-07-28T00:06:34;18.60;99.90
9389;DHT22;4734;52.778;6.798;2023-07-28T00:09:20;18.60;99.90
9389;DHT22;4734;52.778;6.798;2023-07-28T00:12:07;18.60;99.90
9389;DHT22;4734;52.778;6.798;2023-07-28T00:14:53;18.60;99.90
9389;DHT22;4734;52.778;6.798;2023-07-28T00:17:41;18.60;99.90
9389;DHT22;4734;52.778;6.798;2023-07-28T00:20:28;18.60;99.90
9389;DHT22;4734;52.778;6.798;2023-07-28T00:23:14;18.60;99.90
9389;DHT22;4734;52.778;6.798;2023-07-28T00:25:59;18.60;99.90
9389;DHT22;4734;52.778;6.798;2023-07-28T00:28:45;18.60;99.90
9389;DHT22;4734;52.778;6.798;2023-07-28T00:31:30;18.60;99.90
9389;DHT22;4734;52.778;6.798;2023-07-28T00:34:18;18.60;99.90
9389;DHT22;4734;52.778;6.798;2023-07-28T00:37:04;18.60;99.90
9389;DHT22;4734;52.778;6.798;2023-07-28T00:39:49;18.60;99.90
9389;DHT22;4734;52.778;6.798;2023-07-28T00:42:35;18.60;99.90
9389;DHT22;4734;52.778;6.798;2023-07-28T00:45:20;18.60;99.90
9389;DHT22;4734;52.778;6.798;2023-07-28T00:48:11;18.60;99.90
9389;DHT22;4734;52.778;6.798;2023-07-28T00:50:58;18.60;99.90
9389;DHT22;4734;52.778;6.798;2023-07-28T00:53:44;18.60;99.90
9389;DHT22;4734;52.778;6.798;2023-07-28T00:56:30;18.60;99.90
9389;DHT22;4734;52.778;6.798;2023-07-28T00:59:16;18.60;99.90
9389;DHT22;4734;52.778;6.798;2023-07-28T01:02:03;18.60;99.90
9389;DHT22;4734;52.778;6.798;2023-07-28T01:04:49;18.60;99.90
9389;DHT22;4734;52.778;6.798;2023-07-28T01:07:41;18.60;99.90
9389;DHT22;4734;52.778;6.798;2023-07-28T01:10:30;18.60;99.90
9389;DHT22;4734;52.778;6.798;2023-07-28T01:13:17;18.50;99.90
9389;DHT22;4734;52.778;6.798;2023-07-28T01:16:03;18.50;99.90
9389;DHT22;4734;52.778;6.798;2023-07-28T01:18:48;18.50;99.90
9389;DHT22;4734;52.778;6.798;2023-07-28T01:21:35;18.50;99.90
9389;DHT22;4734;52.778;6.798;2023-07-28T01:24:29;18.50;99.90
9389;DHT22;4734;52.778;6.798;2023-07-28T01:27:19;18.60;99.90
9389;DHT22;4734;52.778;6.798;2023-07-28T01:30:05;18.50;99.90
9389;DHT22;4734;52.778;6.798;2023-07-28T01:32:53;18.50;99.90
9389;DHT22;4734;52.778;6.798;2023-07-28T01:35:39;18.50;99.90
9389;DHT22;4734;52.778;6.798;2023-07-28T01:38:25;18.50;99.90
9389;DHT22;4734;52.778;6.798;2023-07-28T01:41:10;18.50;99.90
9389;DHT22;4734;52.778;6.798;2023-07-28T01:43:58;18.50;99.90
9389;DHT22;4734;52.778;6.798;2023-07-28T01:46:43;18.50;99.90
9389;DHT22;4734;52.778;6.798;2023-07-28T01:49:29;18.50;99.90
9389;DHT22;4734;52.778;6.798;2023-07-28T01:52:15;18.50;99.90
9389;DHT22;4734;52.778;6.798;2023-07-28T01:55:00;18.50;99.90
9389;DHT22;4734;52.778;6.798;2023-07-28T01:57:53;18.50;99.90
9389;DHT22;4734;52.778;6.798;2023-07-28T02:00:40;18.50;99.90
9389;DHT22;4734;52.778;6.798;2023-07-28T02:03:26;18.50;99.90
9389;DHT22;4734;52.778;6.798;2023-07-28T02:06:12;18.50;99.90
9389;DHT22;4734;52.778;6.798;2023-07-28T02:08:57;18.50;99.90
9389;DHT22;4734;52.778;6.798;2023-07-28T02:11:43;18.50;99.90
9389;DHT22;4734;52.778;6.798;2023-07-28T02:14:29;18.50;99.90
9389;DHT22;4734;52.778;6.798;2023-07-28T02:17:16;18.50;99.90
9389;DHT22;4734;52.778;6.798;2023-07-28T02:20:01;18.50;99.90
9389;DHT22;4734;52.778;6.798;2023-07-28T02:22:47;18.50;99.90
9389;DHT22;4734;52.778;6.798;2023-07-28T02:25:33;18.50;99.90
9389;DHT22;4734;52.778;6.798;2023-07-28T02:28:18;18.50;99.90
9389;DHT22;4734;52.778;6.798;2023-07-28T02:31:04;18.50;99.90
9389;DHT22;4734;52.778;6.798;2023-07-28T02:33:51;18.50;99.90
9389;DHT22;4734;52.778;6.798;2023-07-28T02:36:37;18.50;99.90
9389;DHT22;4734;52.778;6.798;2023-07-28T02:39:22;18.50;99.90
9389;DHT22;4734;52.778;6.798;2023-07-28T02:42:09;18.50;99.90
9389;DHT22;4734;52.778;6.798;2023-07-28T02:44:55;18.50;99.90
9389;DHT22;4734;52.778;6.798;2023-07-28T02:47:40;18.50;99.90
9389;DHT22;4734;52.778;6.798;2023-07-28T02:50:27;18.50;99.90
9389;DHT22;4734;52.778;6.798;2023-07-28T02:53:13;18.50;99.90
9389;DHT22;4734;52.778;6.798;2023-07-28T02:55:59;18.50;99.90
9389;DHT22;4734;52.778;6.798;2023-07-28T02:58:45;18.50;99.90
9389;DHT22;4734;52.778;6.798;2023-07-28T03:01:31;18.50;99.90
9389;DHT22;4734;52.778;6.798;2023-07-28T03:04:17;18.40;99.90
9389;DHT22;4734;52.778;6.798;2023-07-28T03:07:06;18.50;99.90
9389;DHT22;4734;52.778;6.798;2023-07-28T03:09:51;18.50;99.90
9389;DHT22;4734;52.778;6.798;2023-07-28T03:12:37;18.50;99.90
9389;DHT22;4734;52.778;6.798;2023-07-28T03:15:26;18.50;99.90
9389;DHT22;4734;52.778;6.798;2023-07-28T03:18:11;18.50;99.90
9389;DHT22;4734;52.778;6.798;2023-07-28T03:20:57;18.50;99.90
9389;DHT22;4734;52.778;6.798;2023-07-28T03:23:44;18.50;99.90
9389;DHT22;4734;52.778;6.798;2023-07-28T03:26:30;18.50;99.90
9389;DHT22;4734;52.778;6.798;2023-07-28T03:29:15;18.40;99.90
9389;DHT22;4734;52.778;6.798;2023-07-28T03:32:02;18.40;99.90
9389;DHT22;4734;52.778;6.798;2023-07-28T03:34:48;18.40;99.90
9389;DHT22;4734;52.778;6.798;2023-07-28T03:37:34;18.40;99.90
9389;DHT22;4734;52.778;6.798;2023-07-28T03:40:21;18.40;99.90
9389;DHT22;4734;52.778;6.798;2023-07-28T03:43:06;18.50;99.90
9389;DHT22;4734;52.778;6.798;2023-07-28T03:45:52;18.40;99.90
9389;DHT22;4734;52.778;6.798;2023-07-28T03:48:37;18.40;99.90
9389;DHT22;4734;52.778;6.798;2023-07-28T03:51:23;18.40;99.90
9389;DHT22;4734;52.778;6.798;2023-07-28T03:54:09;18.40;99.90
9389;DHT22;4734;52.778;6.798;2023-07-28T03:56:56;18.40;99.90
9389;DHT22;4734;52.778;6.798;2023-07-28T03:59:41;18.40;99.90
9389;DHT22;4734;52.778;6.798;2023-07-28T04:02:27;18.40;99.90
9389;DHT22;4734;52.778;6.798;2023-07-28T04:05:13;18.40;99.90
9389;DHT22;4734;52.778;6.798;2023-07-28T04:07:58;18.40;99.90
9389;DHT22;4734;52.778;6.798;2023-07-28T04:10:44;18.40;99.90
9389;DHT22;4734;52.778;6.798;2023-07-28T04:13:32;18.40;99.90
9389;DHT22;4734;52.778;6.798;2023-07-28T04:16:18;18.40;99.90
9389;DHT22;4734;52.778;6.798;2023-07-28T04:19:03;18.40;99.90
9389;DHT22;4734;52.778;6.798;2023-07-28T04:21:49;18.40;99.90
9389;DHT22;4734;52.778;6.798;2023-07-28T04:24:34;18.40;99.90
9389;DHT22;4734;52.778;6.798;2023-07-28T04:27:20;18.40;99.90
9389;DHT22;4734;52.778;6.798;2023-07-28T04:30:08;18.40;99.90
9389;DHT22;4734;52.778;6.798;2023-07-28T04:32:53;18.40;99.90
9389;DHT22;4734;52.778;6.798;2023-07-28T04:35:39;18.40;99.90
9389;DHT22;4734;52.778;6.798;2023-07-28T04:38:25;18.40;99.90
9389;DHT22;4734;52.778;6.798;2023-07-28T04:41:11;18.40;99.90
9389;DHT22;4734;52.778;6.798;2023-07-28T04:43:57;18.40;99.90
9389;DHT22;4734;52.778;6.798;2023-07-28T04:46:44;18.40;99.90
9389;DHT22;4734;52.778;6.798;2023-07-28T04:49:31;18.50;99.90
9389;DHT22;4734;52.778;6.798;2023-07-28T04:52:17;18.40;99.90
9389;DHT22;4734;52.778;6.798;2023-07-28T04:55:03;18.50;99.90
9389;DHT22;4734;52.778;6.798;2023-07-28T04:57:49;18.40;99.90
9389;DHT22;4734;52.778;6.798;2023-07-28T05:00:34;18.50;99.90
9389;DHT22;4734;52.778;6.798;2023-07-28T05:03:21;18.50;99.90
9389;DHT22;4734;52.778;6.798;2023-07-28T05:06:07;18.50;99.90
9389;DHT22;4734;52.778;6.798;2023-07-28T05:08:52;18.50;99.90
9389;DHT22;4734;52.778;6.798;2023-07-28T05:11:38;18.50;99.90
9389;DHT22;4734;52.778;6.798;2023-07-28T05:14:24;18.50;99.90
9389;DHT22;4734;52.778;6.798;2023-07-28T05:17:09;18.50;99.90
9389;DHT22;4734;52.778;6.798;2023-07-28T05:19:56;18.50;99.90
9389;DHT22;4734;52.778;6.798;2023-07-28T05:22:42;18.50;99.90
9389;DHT22;4734;52.778;6.798;2023-07-28T05:25:27;18.50;99.90
9389;DHT22;4734;52.778;6.798;2023-07-28T05:28:13;18.50;99.90
9389;DHT22;4734;52.778;6.798;2023-07-28T05:31:03;18.50;99.90
9389;DHT22;4734;52.778;6.798;2023-07-28T05:33:49;18.50;99.90
9389;DHT22;4734;52.778;6.798;2023-07-28T05:39:25;18.50;99.90
9389;DHT22;4734;52.778;6.798;2023-07-28T05:42:10;18.50;99.90
9389;DHT22;4734;52.778;6.798;2023-07-28T05:44:56;18.50;99.90
9389;DHT22;4734;52.778;6.798;2023-07-28T05:47:42;18.60;99.90
9389;DHT22;4734;52.778;6.798;2023-07-28T05:50:27;18.60;99.90
9389;DHT22;4734;52.778;6.798;2023-07-28T05:53:14;18.60;99.90
9389;DHT22;4734;52.778;6.798;2023-07-28T05:56:00;18.60;99.90
9389;DHT22;4734;52.778;6.798;2023-07-28T05:58:46;18.60;99.90
9389;DHT22;4734;52.778;6.798;2023-07-28T06:01:32;18.60;99.90
9389;DHT22;4734;52.778;6.798;2023-07-28T06:04:18;18.60;99.90
9389;DHT22;4734;52.778;6.798;2023-07-28T06:07:03;18.60;99.90
9389;DHT22;4734;52.778;6.798;2023-07-28T06:09:51;18.60;99.90
9389;DHT22;4734;52.778;6.798;2023-07-28T06:12:36;18.60;99.90
9389;DHT22;4734;52.778;6.798;2023-07-28T06:15:22;18.60;99.90
9389;DHT22;4734;52.778;6.798;2023-07-28T06:18:08;18.60;99.90
9389;DHT22;4734;52.778;6.798;2023-07-28T06:20:53;18.60;99.90
9389;DHT22;4734;52.778;6.798;2023-07-28T06:23:39;18.60;99.90
9389;DHT22;4734;52.778;6.798;2023-07-28T06:26:26;18.60;99.90
9389;DHT22;4734;52.778;6.798;2023-07-28T06:29:11;18.60;99.90
9389;DHT22;4734;52.778;6.798;2023-07-28T06:31:57;18.70;99.90
9389;DHT22;4734;52.778;6.798;2023-07-28T06:34:43;18.70;99.90
9389;DHT22;4734;52.778;6.798;2023-07-28T06:37:28;18.70;99.90
9389;DHT22;4734;52.778;6.798;2023-07-28T06:40:14;18.70;99.90
9389;DHT22;4734;52.778;6.798;2023-07-28T06:43:01;18.80;99.90
9389;DHT22;4734;52.778;6.798;2023-07-28T06:45:46;18.80;99.90
9389;DHT22;4734;52.778;6.798;2023-07-28T06:48:32;18.80;99.90
9389;DHT22;4734;52.778;6.798;2023-07-28T06:51:18;18.80;99.90
9389;DHT22;4734;52.778;6.798;2023-07-28T06:54:03;18.90;99.90
9389;DHT22;4734;52.778;6.798;2023-07-28T06:56:53;18.90;99.90
9389;DHT22;4734;52.778;6.798;2023-07-28T06:59:40;18.90;99.90
9389;DHT22;4734;52.778;6.798;2023-07-28T07:02:26;18.90;99.90
9389;DHT22;4734;52.778;6.798;2023-07-28T07:05:12;19.00;99.90
9389;DHT22;4734;52.778;6.798;2023-07-28T07:07:58;19.00;99.90
9389;DHT22;4734;52.778;6.798;2023-07-28T07:10:47;19.00;99.90
9389;DHT22;4734;52.778;6.798;2023-07-28T07:13:34;19.10;99.90
9389;DHT22;4734;52.778;6.798;2023-07-28T07:16:21;19.10;99.90
9389;DHT22;4734;52.778;6.798;2023-07-28T07:19:06;19.10;99.90
9389;DHT22;4734;52.778;6.798;2023-07-28T07:21:52;19.20;99.90
9389;DHT22;4734;52.778;6.798;2023-07-28T07:24:38;19.20;99.90
9389;DHT22;4734;52.778;6.798;2023-07-28T07:27:24;19.20;99.90
9389;DHT22;4734;52.778;6.798;2023-07-28T07:30:10;19.20;99.90
9389;DHT22;4734;52.778;6.798;2023-07-28T07:32:57;19.30;99.90
9389;DHT22;4734;52.778;6.798;2023-07-28T07:35:42;19.30;99.90
9389;DHT22;4734;52.778;6.798;2023-07-28T07:38:28;19.30;99.90
9389;DHT22;4734;52.778;6.798;2023-07-28T07:41:14;19.30;99.90
9389;DHT22;4734;52.778;6.798;2023-07-28T07:44:03;19.30;99.90
9389;DHT22;4734;52.778;6.798;2023-07-28T07:46:49;19.40;99.90
9389;DHT22;4734;52.778;6.798;2023-07-28T07:49:39;19.40;99.90
9389;DHT22;4734;52.778;6.798;2023-07-28T07:52:25;19.40;99.90
9389;DHT22;4734;52.778;6.798;2023-07-28T07:55:11;19.40;99.90
9389;DHT22;4734;52.778;6.798;2023-07-28T07:57:56;19.50;99.90
9389;DHT22;4734;52.778;6.798;2023-07-28T08:00:42;19.50;99.90
9389;DHT22;4734;52.778;6.798;2023-07-28T08:03:28;19.50;99.90
9389;DHT22;4734;52.778;6.798;2023-07-28T08:06:15;19.60;99.90
9389;DHT22;4734;52.778;6.798;2023-07-28T08:09:01;19.60;99.90
9389;DHT22;4734;52.778;6.798;2023-07-28T08:11:47;19.60;99.90
9389;DHT22;4734;52.778;6.798;2023-07-28T08:14:33;19.60;99.90
9389;DHT22;4734;52.778;6.798;2023-07-28T08:17:19;19.70;99.90
9389;DHT22;4734;52.778;6.798;2023-07-28T08:20:10;19.70;99.90
9389;DHT22;4734;52.778;6.798;2023-07-28T08:22:57;19.70;99.90
9389;DHT22;4734;52.778;6.798;2023-07-28T08:25:42;19.80;99.90
9389;DHT22;4734;52.778;6.798;2023-07-28T08:28:28;19.80;99.90
9389;DHT22;4734;52.778;6.798;2023-07-28T08:31:14;19.90;99.90
9389;DHT22;4734;52.778;6.798;2023-07-28T08:33:59;19.90;99.90
9389;DHT22;4734;52.778;6.798;2023-07-28T08:36:45;20.00;99.90
9389;DHT22;4734;52.778;6.798;2023-07-28T08:39:32;20.00;99.90
9389;DHT22;4734;52.778;6.798;2023-07-28T08:42:18;20.10;99.90
9389;DHT22;4734;52.778;6.798;2023-07-28T08:45:04;20.10;99.90
9389;DHT22;4734;52.778;6.798;2023-07-28T08:47:52;20.20;99.90
9389;DHT22;4734;52.778;6.798;2023-07-28T08:50:37;20.30;99.90
9389;DHT22;4734;52.778;6.798;2023-07-28T08:53:23;20.40;99.90
9389;DHT22;4734;52.778;6.798;2023-07-28T08:56:10;20.40;99.90
9389;DHT22;4734;52.778;6.798;2023-07-28T08:58:59;20.50;99.90
9389;DHT22;4734;52.778;6.798;2023-07-28T09:01:44;20.60;99.90
9389;DHT22;4734;52.778;6.798;2023-07-28T09:04:30;20.70;99.90
9389;DHT22;4734;52.778;6.798;2023-07-28T09:07:16;20.80;99.90
9389;DHT22;4734;52.778;6.798;2023-07-28T09:10:02;20.90;99.90
9389;DHT22;4734;52.778;6.798;2023-07-28T09:12:53;20.90;99.90
9389;DHT22;4734;52.778;6.798;2023-07-28T09:15:39;21.00;99.90
9389;DHT22;4734;52.778;6.798;2023-07-28T09:18:26;21.10;99.90
9389;DHT22;4734;52.778;6.798;2023-07-28T09:21:16;21.20;99.90
9389;DHT22;4734;52.778;6.798;2023-07-28T09:24:04;21.30;99.90
9389;DHT22;4734;52.778;6.798;2023-07-28T09:26:50;21.30;99.90
9389;DHT22;4734;52.778;6.798;2023-07-28T09:29:37;21.40;99.90
9389;DHT22;4734;52.778;6.798;2023-07-28T09:32:28;21.50;99.90
9389;DHT22;4734;52.778;6.798;2023-07-28T09:35:15;21.50;99.90
9389;DHT22;4734;52.778;6.798;2023-07-28T09:38:00;21.60;99.90
9389;DHT22;4734;52.778;6.798;2023-07-28T09:40:46;21.60;99.90
9389;DHT22;4734;52.778;6.798;2023-07-28T09:43:33;21.70;99.90
9389;DHT22;4734;52.778;6.798;2023-07-28T09:46:22;21.70;99.90
9389;DHT22;4734;52.778;6.798;2023-07-28T09:49:10;21.80;99.90
9389;DHT22;4734;52.778;6.798;2023-07-28T09:51:59;21.80;99.90
9389;DHT22;4734;52.778;6.798;2023-07-28T09:54:48;21.80;99.90
9389;DHT22;4734;52.778;6.798;2023-07-28T09:57:39;21.90;99.90
9389;DHT22;4734;52.778;6.798;2023-07-28T10:00:27;21.90;99.90
9389;DHT22;4734;52.778;6.798;2023-07-28T10:03:16;22.00;99.90
9389;DHT22;4734;52.778;6.798;2023-07-28T10:06:03;22.00;99.90
9389;DHT22;4734;52.778;6.798;2023-07-28T10:08:54;22.00;99.90
9389;DHT22;4734;52.778;6.798;2023-07-28T10:11:42;22.10;99.90
9389;DHT22;4734;52.778;6.798;2023-07-28T10:14:28;22.20;99.90
9389;DHT22;4734;52.778;6.798;2023-07-28T10:17:16;22.20;99.90
9389;DHT22;4734;52.778;6.798;2023-07-28T10:20:05;22.30;99.90
9389;DHT22;4734;52.778;6.798;2023-07-28T10:22:53;22.40;99.90
9389;DHT22;4734;52.778;6.798;2023-07-28T10:25:39;22.50;99.90
9389;DHT22;4734;52.778;6.798;2023-07-28T10:28:27;22.60;99.90
9389;DHT22;4734;52.778;6.798;2023-07-28T10:31:13;22.70;99.90
9389;DHT22;4734;52.778;6.798;2023-07-28T10:34:00;22.90;99.90
9389;DHT22;4734;52.778;6.798;2023-07-28T10:36:56;23.00;99.90
9389;DHT22;4734;52.778;6.798;2023-07-28T10:39:49;23.10;99.90
9389;DHT22;4734;52.778;6.798;2023-07-28T10:42:56;23.20;99.90
9389;DHT22;4734;52.778;6.798;2023-07-28T10:45:42;23.30;99.90
9389;DHT22;4734;52.778;6.798;2023-07-28T10:48:29;23.40;99.90
9389;DHT22;4734;52.778;6.798;2023-07-28T10:51:20;23.50;99.90
9389;DHT22;4734;52.778;6.798;2023-07-28T10:54:08;23.60;99.90
9389;DHT22;4734;52.778;6.798;2023-07-28T10:56:54;23.70;99.90
9389;DHT22;4734;52.778;6.798;2023-07-28T10:59:40;23.80;99.90
9389;DHT22;4734;52.778;6.798;2023-07-28T11:02:26;23.90;99.90
9389;DHT22;4734;52.778;6.798;2023-07-28T11:05:18;23.90;99.90
9389;DHT22;4734;52.778;6.798;2023-07-28T11:08:05;24.00;99.90
9389;DHT22;4734;52.778;6.798;2023-07-28T11:10:53;24.00;99.90
9389;DHT22;4734;52.778;6.798;2023-07-28T11:13:39;24.00;99.90
9389;DHT22;4734;52.778;6.798;2023-07-28T11:16:25;24.00;99.90
9389;DHT22;4734;52.778;6.798;2023-07-28T11:19:12;24.00;99.90
9389;DHT22;4734;52.778;6.798;2023-07-28T11:21:59;23.90;99.90
9389;DHT22;4734;52.778;6.798;2023-07-28T11:24:44;23.90;99.90
9389;DHT22;4734;52.778;6.798;2023-07-28T11:27:32;23.80;99.90
9389;DHT22;4734;52.778;6.798;2023-07-28T11:30:19;23.70;99.90
9389;DHT22;4734;52.778;6.798;2023-07-28T11:33:08;23.70;99.90
9389;DHT22;4734;52.778;6.798;2023-07-28T11:35:54;23.60;99.90
9389;DHT22;4734;52.778;6.798;2023-07-28T11:38:40;23.60;99.90
9389;DHT22;4734;52.778;6.798;2023-07-28T11:41:26;23.50;99.90
9389;DHT22;4734;52.778;6.798;2023-07-28T11:44:15;23.50;99.90
9389;DHT22;4734;52.778;6.798;2023-07-28T11:47:04;23.50;99.90
9389;DHT22;4734;52.778;6.798;2023-07-28T11:49:50;23.50;99.90
9389;DHT22;4734;52.778;6.798;2023-07-28T11:52:36;23.50;99.90
9389;DHT22;4734;52.778;6.798;2023-07-28T11:55:22;23.50;99.90
9389;DHT22;4734;52.778;6.798;2023-07-28T11:58:08;23.50;99.90
9389;DHT22;4734;52.778;6.798;2023-07-28T12:00:56;23.50;99.90
9389;DHT22;4734;52.778;6.798;2023-07-28T12:03:42;23.50;99.90
9389;DHT22;4734;52.778;6.798;2023-07-28T12:06:28;23.50;99.90
9389;DHT22;4734;52.778;6.798;2023-07-28T12:09:13;23.50;99.90
9389;DHT22;4734;52.778;6.798;2023-07-28T12:11:59;23.60;99.90
9389;DHT22;4734;52.778;6.798;2023-07-28T12:14:45;23.60;99.90
9389;DHT22;4734;52.778;6.798;2023-07-28T12:17:32;23.70;99.90
9389;DHT22;4734;52.778;6.798;2023-07-28T12:20:18;23.70;99.90
9389;DHT22;4734;52.778;6.798;2023-07-28T12:23:04;23.70;99.90
9389;DHT22;4734;52.778;6.798;2023-07-28T12:25:50;23.80;99.90
9389;DHT22;4734;52.778;6.798;2023-07-28T12:28:38;23.80;99.90
9389;DHT22;4734;52.778;6.798;2023-07-28T12:31:23;23.80;99.90
9389;DHT22;4734;52.778;6.798;2023-07-28T12:34:10;23.90;99.90
9389;DHT22;4734;52.778;6.798;2023-07-28T12:36:56;23.90;99.90
9389;DHT22;4734;52.778;6.798;2023-07-28T12:39:41;23.90;99.90
9389;DHT22;4734;52.778;6.798;2023-07-28T12:42:28;24.00;99.90
9389;DHT22;4734;52.778;6.798;2023-07-28T12:45:13;24.00;99.90
9389;DHT22;4734;52.778;6.798;2023-07-28T12:48:00;24.00;99.90
9389;DHT22;4734;52.778;6.798;2023-07-28T12:50:46;24.00;99.90
9389;DHT22;4734;52.778;6.798;2023-07-28T12:53:32;24.10;99.90
9389;DHT22;4734;52.778;6.798;2023-07-28T12:56:18;24.10;99.90
9389;DHT22;4734;52.778;6.798;2023-07-28T12:59:03;24.10;99.90
9389;DHT22;4734;52.778;6.798;2023-07-28T13:01:49;24.20;99.90
9389;DHT22;4734;52.778;6.798;2023-07-28T13:04:34;24.20;99.90
9389;DHT22;4734;52.778;6.798;2023-07-28T13:07:22;24.30;99.90
9389;DHT22;4734;52.778;6.798;2023-07-28T13:10:09;24.30;99.90
9389;DHT22;4734;52.778;6.798;2023-07-28T13:12:54;24.40;99.90
9389;DHT22;4734;52.778;6.798;2023-07-28T13:15:40;24.40;99.90
9389;DHT22;4734;52.778;6.798;2023-07-28T13:18:26;24.50;99.90
9389;DHT22;4734;52.778;6.798;2023-07-28T13:21:13;24.50;99.90
9389;DHT22;4734;52.778;6.798;2023-07-28T13:24:00;24.60;99.90
9389;DHT22;4734;52.778;6.798;2023-07-28T13:26:46;24.60;99.90
9389;DHT22;4734;52.778;6.798;2023-07-28T13:29:31;24.70;99.90
9389;DHT22;4734;52.778;6.798;2023-07-28T13:32:22;24.80;99.90
9389;DHT22;4734;52.778;6.798;2023-07-28T13:35:08;24.90;99.90
9389;DHT22;4734;52.778;6.798;2023-07-28T13:37:53;25.00;99.90
9389;DHT22;4734;52.778;6.798;2023-07-28T13:40:40;25.10;99.90
9389;DHT22;4734;52.778;6.798;2023-07-28T13:43:26;25.20;99.90
9389;DHT22;4734;52.778;6.798;2023-07-28T13:46:11;25.30;99.90
9389;DHT22;4734;52.778;6.798;2023-07-28T13:48:57;25.40;99.90
9389;DHT22;4734;52.778;6.798;2023-07-28T13:51:42;25.60;99.90
9389;DHT22;4734;52.778;6.798;2023-07-28T13:54:28;25.70;99.90
9389;DHT22;4734;52.778;6.798;2023-07-28T13:57:15;25.80;99.90
9389;DHT22;4734;52.778;6.798;2023-07-28T14:02:46;26.00;99.90
9389;DHT22;4734;52.778;6.798;2023-07-28T14:05:32;26.30;99.90
9389;DHT22;4734;52.778;6.798;2023-07-28T14:08:17;26.50;99.90
9389;DHT22;4734;52.778;6.798;2023-07-28T14:11:03;26.60;99.90
9389;DHT22;4734;52.778;6.798;2023-07-28T14:13:50;26.70;99.90
9389;DHT22;4734;52.778;6.798;2023-07-28T14:16:35;26.80;99.90
9389;DHT22;4734;52.778;6.798;2023-07-28T14:19:21;26.90;99.90
9389;DHT22;4734;52.778;6.798;2023-07-28T14:22:07;27.00;99.90
9389;DHT22;4734;52.778;6.798;2023-07-28T15:00:52;27.00;99.90
9389;DHT22;4734;52.778;6.798;2023-07-28T15:03:40;27.90;99.90
9389;DHT22;4734;52.778;6.798;2023-07-28T15:23:04;28.00;99.90
9389;DHT22;4734;52.778;6.798;2023-07-28T15:48:01;28.00;99.90
9389;DHT22;4734;52.778;6.798;2023-07-28T15:50:47;27.60;99.90
9389;DHT22;4734;52.778;6.798;2023-07-28T15:53:34;27.50;99.90
9389;DHT22;4734;52.778;6.798;2023-07-28T15:56:20;27.50;99.90
9389;DHT22;4734;52.778;6.798;2023-07-28T15:59:06;27.40;99.90
9389;DHT22;4734;52.778;6.798;2023-07-28T16:01:51;27.40;99.90
9389;DHT22;4734;52.778;6.798;2023-07-28T16:04:37;27.40;99.90
9389;DHT22;4734;52.778;6.798;2023-07-28T16:07:23;27.40;99.90
9389;DHT22;4734;52.778;6.798;2023-07-28T16:10:10;27.40;99.90
9389;DHT22;4734;52.778;6.798;2023-07-28T16:12:55;27.40;99.90
9389;DHT22;4734;52.778;6.798;2023-07-28T16:15:41;27.40;99.90
9389;DHT22;4734;52.778;6.798;2023-07-28T16:18:26;27.30;99.90
9389;DHT22;4734;52.778;6.798;2023-07-28T16:21:12;27.30;99.90
9389;DHT22;4734;52.778;6.798;2023-07-28T16:23:57;27.30;99.90
9389;DHT22;4734;52.778;6.798;2023-07-28T16:26:45;27.30;99.90
9389;DHT22;4734;52.778;6.798;2023-07-28T16:29:30;27.30;99.90
9389;DHT22;4734;52.778;6.798;2023-07-28T16:32:16;27.30;99.90
9389;DHT22;4734;52.778;6.798;2023-07-28T16:35:02;27.30;99.90
9389;DHT22;4734;52.778;6.798;2023-07-28T16:37:48;27.30;99.90
9389;DHT22;4734;52.778;6.798;2023-07-28T16:40:33;27.30;99.90
9389;DHT22;4734;52.778;6.798;2023-07-28T16:43:20;27.30;99.90
9389;DHT22;4734;52.778;6.798;2023-07-28T16:46:06;27.30;99.90
9389;DHT22;4734;52.778;6.798;2023-07-28T16:48:53;27.20;99.90
9389;DHT22;4734;52.778;6.798;2023-07-28T16:51:39;27.20;99.90
9389;DHT22;4734;52.778;6.798;2023-07-28T16:54:24;27.20;99.90
9389;DHT22;4734;52.778;6.798;2023-07-28T16:57:11;27.20;99.90
9389;DHT22;4734;52.778;6.798;2023-07-28T16:59:58;27.10;99.90
9389;DHT22;4734;52.778;6.798;2023-07-28T17:02:44;27.10;99.90
9389;DHT22;4734;52.778;6.798;2023-07-28T17:05:29;27.10;99.90
9389;DHT22;4734;52.778;6.798;2023-07-28T17:08:15;27.10;99.90
9389;DHT22;4734;52.778;6.798;2023-07-28T17:11:00;27.10;99.90
9389;DHT22;4734;52.778;6.798;2023-07-28T17:13:46;27.00;99.90
9389;DHT22;4734;52.778;6.798;2023-07-28T17:16:33;27.00;99.90
9389;DHT22;4734;52.778;6.798;2023-07-28T17:19:19;27.00;99.90
9389;DHT22;4734;52.778;6.798;2023-07-28T17:22:05;27.00;99.90
9389;DHT22;4734;52.778;6.798;2023-07-28T17:24:51;27.00;99.90
9389;DHT22;4734;52.778;6.798;2023-07-28T17:27:36;27.00;99.90
9389;DHT22;4734;52.778;6.798;2023-07-28T17:30:22;27.00;99.90
9389;DHT22;4734;52.778;6.798;2023-07-28T17:33:09;27.00;99.90
9389;DHT22;4734;52.778;6.798;2023-07-28T17:35:54;27.00;99.90
9389;DHT22;4734;52.778;6.798;2023-07-28T17:38:41;27.00;99.90
9389;DHT22;4734;52.778;6.798;2023-07-28T17:41:26;27.00;99.90
9389;DHT22;4734;52.778;6.798;2023-07-28T17:44:12;27.00;99.90
9389;DHT22;4734;52.778;6.798;2023-07-28T17:46:58;27.00;99.90
9389;DHT22;4734;52.778;6.798;2023-07-28T17:49:44;26.90;99.90
9389;DHT22;4734;52.778;6.798;2023-07-28T17:52:30;26.90;99.90
9389;DHT22;4734;52.778;6.798;2023-07-28T17:58:01;26.80;99.90
9389;DHT22;4734;52.778;6.798;2023-07-28T18:00:47;26.80;99.90
9389;DHT22;4734;52.778;6.798;2023-07-28T18:03:32;26.70;99.90
9389;DHT22;4734;52.778;6.798;2023-07-28T18:06:20;26.70;99.90
9389;DHT22;4734;52.778;6.798;2023-07-28T18:09:07;26.60;99.90
9389;DHT22;4734;52.778;6.798;2023-07-28T18:11:52;26.60;99.90
9389;DHT22;4734;52.778;6.798;2023-07-28T18:14:38;26.50;99.90
9389;DHT22;4734;52.778;6.798;2023-07-28T18:17:24;26.50;99.90
9389;DHT22;4734;52.778;6.798;2023-07-28T18:20:09;26.40;99.90
9389;DHT22;4734;52.778;6.798;2023-07-28T18:22:57;26.30;99.90
9389;DHT22;4734;52.778;6.798;2023-07-28T18:25:42;26.20;99.90
9389;DHT22;4734;52.778;6.798;2023-07-28T18:28:28;26.20;99.90
9389;DHT22;4734;52.778;6.798;2023-07-28T18:31:13;26.10;99.90
9389;DHT22;4734;52.778;6.798;2023-07-28T18:33:59;26.00;99.90
9389;DHT22;4734;52.778;6.798;2023-07-28T18:36:45;25.90;99.90
9389;DHT22;4734;52.778;6.798;2023-07-28T18:39:32;25.90;99.90
9389;DHT22;4734;52.778;6.798;2023-07-28T18:42:18;25.80;99.90
9389;DHT22;4734;52.778;6.798;2023-07-28T18:45:05;25.70;99.90
9389;DHT22;4734;52.778;6.798;2023-07-28T18:47:50;25.60;99.90
9389;DHT22;4734;52.778;6.798;2023-07-28T18:50:36;25.50;99.90
9389;DHT22;4734;52.778;6.798;2023-07-28T18:53:23;25.40;99.90
9389;DHT22;4734;52.778;6.798;2023-07-28T18:56:11;25.30;99.90
9389;DHT22;4734;52.778;6.798;2023-07-28T18:58:56;25.30;99.90
9389;DHT22;4734;52.778;6.798;2023-07-28T19:01:42;25.20;99.90
9389;DHT22;4734;52.778;6.798;2023-07-28T19:04:28;25.10;99.90
9389;DHT22;4734;52.778;6.798;2023-07-28T19:07:14;25.00;99.90
9389;DHT22;4734;52.778;6.798;2023-07-28T19:09:59;25.00;99.90
9389;DHT22;4734;52.778;6.798;2023-07-28T19:12:46;24.90;99.90
9389;DHT22;4734;52.778;6.798;2023-07-28T19:15:32;24.80;99.90
9389;DHT22;4734;52.778;6.798;2023-07-28T19:18:17;24.70;99.90
9389;DHT22;4734;52.778;6.798;2023-07-28T19:21:04;24.70;99.90
9389;DHT22;4734;52.778;6.798;2023-07-28T19:23:49;24.60;99.90
9389;DHT22;4734;52.778;6.798;2023-07-28T19:26:35;24.50;99.90
9389;DHT22;4734;52.778;6.798;2023-07-28T19:29:22;24.50;99.90